sensor_id;sensor_type;location;lat;lon;timestamp;temperature;humidity
17174;DHT22;8702;48.130;-1.696;2022-11-15T00:00:54;13.50;99.90
17174;DHT22;8702;48.130;-1.696;2022-11-15T00:03:23;13.50;99.90
17174;DHT22;8702;48.130;-1.696;2022-11-15T00:05:50;13.50;99.90
17174;DHT22;8702;48.130;-1.696;2022-11-15T00:08:17;13.50;99.90
17174;DHT22;8702;48.130;-1.696;2022-11-15T00:10:54;13.60;99.90
17174;DHT22;8702;48.130;-1.696;2022-11-15T00:13:21;13.60;99.90
17174;DHT22;8702;48.130;-1.696;2022-11-15T00:15:49;13.50;99.90
17174;DHT22;8702;48.130;-1.696;2022-11-15T00:18:17;13.50;99.90
17174;DHT22;8702;48.130;-1.696;2022-11-15T00:20:44;13.50;99.90
17174;DHT22;8702;48.130;-1.696;2022-11-15T00:23:10;13.40;99.90
17174;DHT22;8702;48.130;-1.696;2022-11-15T00:25:37;13.40;99.90
17174;DHT22;8702;48.130;-1.696;2022-11-15T00:28:04;13.40;99.90
17174;DHT22;8702;48.130;-1.696;2022-11-15T00:30:32;13.50;99.90
17174;DHT22;8702;48.130;-1.696;2022-11-15T00:33:03;13.30;99.90
17174;DHT22;8702;48.130;-1.696;2022-11-15T00:35:31;13.40;99.90
17174;DHT22;8702;48.130;-1.696;2022-11-15T00:37:59;13.50;99.90
17174;DHT22;8702;48.130;-1.696;2022-11-15T00:40:26;13.40;99.90
17174;DHT22;8702;48.130;-1.696;2022-11-15T00:42:53;13.40;99.90
17174;DHT22;8702;48.130;-1.696;2022-11-15T00:45:20;13.40;99.90
17174;DHT22;8702;48.130;-1.696;2022-11-15T00:47:47;13.40;99.90
17174;DHT22;8702;48.130;-1.696;2022-11-15T00:50:16;13.40;99.90
17174;DHT22;8702;48.130;-1.696;2022-11-15T00:52:43;13.40;99.90
17174;DHT22;8702;48.130;-1.696;2022-11-15T00:55:16;13.30;99.90
17174;DHT22;8702;48.130;-1.696;2022-11-15T00:57:43;13.40;99.90
17174;DHT22;8702;48.130;-1.696;2022-11-15T01:00:11;13.60;99.90
17174;DHT22;8702;48.130;-1.696;2022-11-15T01:02:38;13.60;99.90
17174;DHT22;8702;48.130;-1.696;2022-11-15T01:05:06;13.60;99.90
17174;DHT22;8702;48.130;-1.696;2022-11-15T01:07:34;13.70;99.90
17174;DHT22;8702;48.130;-1.696;2022-11-15T01:10:02;13.70;99.90
17174;DHT22;8702;48.130;-1.696;2022-11-15T01:12:29;13.70;99.90
17174;DHT22;8702;48.130;-1.696;2022-11-15T01:14:56;13.70;99.90
17174;DHT22;8702;48.130;-1.696;2022-11-15T01:17:25;13.70;99.90
17174;DHT22;8702;48.130;-1.696;2022-11-15T01:19:52;13.70;99.90
17174;DHT22;8702;48.130;-1.696;2022-11-15T01:22:20;13.70;99.90
17174;DHT22;8702;48.130;-1.696;2022-11-15T01:24:49;13.70;99.90
17174;DHT22;8702;48.130;-1.696;2022-11-15T01:27:16;13.70;99.90
17174;DHT22;8702;48.130;-1.696;2022-11-15T01:29:43;13.70;99.90
17174;DHT22;8702;48.130;-1.696;2022-11-15T01:32:10;13.70;99.90
17174;DHT22;8702;48.130;-1.696;2022-11-15T01:34:37;13.80;99.90
17174;DHT22;8702;48.130;-1.696;2022-11-15T01:37:04;13.70;99.90
17174;DHT22;8702;48.130;-1.696;2022-11-15T01:39:31;13.70;99.90
17174;DHT22;8702;48.130;-1.696;2022-11-15T01:42:00;13.80;99.90
17174;DHT22;8702;48.130;-1.696;2022-11-15T01:44:41;13.80;99.90
17174;DHT22;8702;48.130;-1.696;2022-11-15T01:47:12;13.90;99.90
17174;DHT22;8702;48.130;-1.696;2022-11-15T01:49:44;13.60;99.90
17174;DHT22;8702;48.130;-1.696;2022-11-15T01:52:16;13.80;99.90
17174;DHT22;8702;48.130;-1.696;2022-11-15T01:54:44;13.80;99.90
17174;DHT22;8702;48.130;-1.696;2022-11-15T01:57:13;13.90;99.90
17174;DHT22;8702;48.130;-1.696;2022-11-15T01:59:42;13.90;99.90
17174;DHT22;8702;48.130;-1.696;2022-11-15T02:02:10;13.90;99.90
17174;DHT22;8702;48.130;-1.696;2022-11-15T02:04:40;13.90;99.90
17174;DHT22;8702;48.130;-1.696;2022-11-15T02:07:13;13.90;99.90
17174;DHT22;8702;48.130;-1.696;2022-11-15T02:09:41;13.90;99.90
17174;DHT22;8702;48.130;-1.696;2022-11-15T02:12:10;14.00;99.90
17174;DHT22;8702;48.130;-1.696;2022-11-15T02:14:40;13.90;99.90
17174;DHT22;8702;48.130;-1.696;2022-11-15T02:17:24;14.00;99.90
17174;DHT22;8702;48.130;-1.696;2022-11-15T02:20:14;13.90;99.90
17174;DHT22;8702;48.130;-1.696;2022-11-15T02:23:03;13.90;99.90
17174;DHT22;8702;48.130;-1.696;2022-11-15T02:25:39;13.90;99.90
17174;DHT22;8702;48.130;-1.696;2022-11-15T02:28:33;13.90;99.90
17174;DHT22;8702;48.130;-1.696;2022-11-15T02:31:11;13.90;99.90
17174;DHT22;8702;48.130;-1.696;2022-11-15T02:33:47;14.10;99.90
17174;DHT22;8702;48.130;-1.696;2022-11-15T02:36:23;14.10;99.90
17174;DHT22;8702;48.130;-1.696;2022-11-15T02:38:59;14.00;99.90
17174;DHT22;8702;48.130;-1.696;2022-11-15T02:41:31;14.00;99.90
17174;DHT22;8702;48.130;-1.696;2022-11-15T02:44:04;14.00;99.90
17174;DHT22;8702;48.130;-1.696;2022-11-15T02:46:37;14.00;99.90
17174;DHT22;8702;48.130;-1.696;2022-11-15T02:49:24;14.10;99.90
17174;DHT22;8702;48.130;-1.696;2022-11-15T02:51:52;14.10;99.90
17174;DHT22;8702;48.130;-1.696;2022-11-15T02:54:22;14.00;99.90
17174;DHT22;8702;48.130;-1.696;2022-11-15T02:56:53;14.00;99.90
17174;DHT22;8702;48.130;-1.696;2022-11-15T02:59:34;13.90;99.90
17174;DHT22;8702;48.130;-1.696;2022-11-15T03:02:21;14.00;99.90
17174;DHT22;8702;48.130;-1.696;2022-11-15T03:04:54;14.00;99.90
17174;DHT22;8702;48.130;-1.696;2022-11-15T03:07:27;14.00;99.90
17174;DHT22;8702;48.130;-1.696;2022-11-15T03:10:01;14.00;99.90
17174;DHT22;8702;48.130;-1.696;2022-11-15T03:12:34;14.00;99.90
17174;DHT22;8702;48.130;-1.696;2022-11-15T03:15:06;14.00;99.90
17174;DHT22;8702;48.130;-1.696;2022-11-15T03:17:40;14.10;99.90
17174;DHT22;8702;48.130;-1.696;2022-11-15T03:20:10;14.10;99.90
17174;DHT22;8702;48.130;-1.696;2022-11-15T03:22:42;14.10;99.90
17174;DHT22;8702;48.130;-1.696;2022-11-15T03:25:12;14.10;99.90
17174;DHT22;8702;48.130;-1.696;2022-11-15T03:27:43;14.10;99.90
17174;DHT22;8702;48.130;-1.696;2022-11-15T03:30:12;14.10;99.90
17174;DHT22;8702;48.130;-1.696;2022-11-15T03:32:46;14.10;99.90
17174;DHT22;8702;48.130;-1.696;2022-11-15T03:35:17;14.00;99.90
17174;DHT22;8702;48.130;-1.696;2022-11-15T03:37:50;14.00;99.90
17174;DHT22;8702;48.130;-1.696;2022-11-15T03:40:22;14.10;99.90
17174;DHT22;8702;48.130;-1.696;2022-11-15T03:42:55;14.00;99.90
17174;DHT22;8702;48.130;-1.696;2022-11-15T03:45:28;14.00;99.90
17174;DHT22;8702;48.130;-1.696;2022-11-15T03:48:01;14.00;99.90
17174;DHT22;8702;48.130;-1.696;2022-11-15T03:50:29;14.10;99.90
17174;DHT22;8702;48.130;-1.696;2022-11-15T03:52:57;14.00;99.90
17174;DHT22;8702;48.130;-1.696;2022-11-15T03:55:25;14.10;99.90
17174;DHT22;8702;48.130;-1.696;2022-11-15T03:57:55;14.00;99.90
17174;DHT22;8702;48.130;-1.696;2022-11-15T04:00:23;14.00;99.90
17174;DHT22;8702;48.130;-1.696;2022-11-15T04:02:50;14.10;99.90
17174;DHT22;8702;48.130;-1.696;2022-11-15T04:05:19;14.10;99.90
17174;DHT22;8702;48.130;-1.696;2022-11-15T04:07:46;14.20;99.90
17174;DHT22;8702;48.130;-1.696;2022-11-15T04:10:13;14.20;99.90
17174;DHT22;8702;48.130;-1.696;2022-11-15T04:12:44;14.20;99.90
17174;DHT22;8702;48.130;-1.696;2022-11-15T04:15:14;14.20;99.90
17174;DHT22;8702;48.130;-1.696;2022-11-15T04:17:43;14.20;99.90
17174;DHT22;8702;48.130;-1.696;2022-11-15T04:20:14;14.20;99.90
17174;DHT22;8702;48.130;-1.696;2022-11-15T04:23:01;14.20;99.90
17174;DHT22;8702;48.130;-1.696;2022-11-15T04:25:48;14.10;99.90
17174;DHT22;8702;48.130;-1.696;2022-11-15T04:28:16;14.00;99.90
17174;DHT22;8702;48.130;-1.696;2022-11-15T04:30:43;14.10;99.90
17174;DHT22;8702;48.130;-1.696;2022-11-15T04:33:10;14.10;99.90
17174;DHT22;8702;48.130;-1.696;2022-11-15T04:35:37;14.10;99.90
17174;DHT22;8702;48.130;-1.696;2022-11-15T04:38:08;14.10;99.90
17174;DHT22;8702;48.130;-1.696;2022-11-15T04:40:34;14.10;99.90
17174;DHT22;8702;48.130;-1.696;2022-11-15T04:43:02;14.00;99.90
17174;DHT22;8702;48.130;-1.696;2022-11-15T04:45:29;14.10;99.90
17174;DHT22;8702;48.130;-1.696;2022-11-15T04:47:56;14.10;99.90
17174;DHT22;8702;48.130;-1.696;2022-11-15T04:50:23;14.10;99.90
17174;DHT22;8702;48.130;-1.696;2022-11-15T04:52:51;14.00;99.90
17174;DHT22;8702;48.130;-1.696;2022-11-15T04:55:20;14.00;99.90
17174;DHT22;8702;48.130;-1.696;2022-11-15T04:57:47;13.90;99.90
17174;DHT22;8702;48.130;-1.696;2022-11-15T05:00:16;13.90;99.90
17174;DHT22;8702;48.130;-1.696;2022-11-15T05:02:43;13.90;99.90
17174;DHT22;8702;48.130;-1.696;2022-11-15T05:05:27;13.90;99.90
17174;DHT22;8702;48.130;-1.696;2022-11-15T05:07:54;13.80;99.90
17174;DHT22;8702;48.130;-1.696;2022-11-15T05:10:22;13.80;99.90
17174;DHT22;8702;48.130;-1.696;2022-11-15T05:12:49;13.80;99.90
17174;DHT22;8702;48.130;-1.696;2022-11-15T05:15:16;13.90;99.90
17174;DHT22;8702;48.130;-1.696;2022-11-15T05:17:43;13.90;99.90
17174;DHT22;8702;48.130;-1.696;2022-11-15T05:20:11;13.90;99.90
17174;DHT22;8702;48.130;-1.696;2022-11-15T05:22:38;13.80;99.90
17174;DHT22;8702;48.130;-1.696;2022-11-15T05:25:06;13.90;99.90
17174;DHT22;8702;48.130;-1.696;2022-11-15T05:27:35;13.80;99.90
17174;DHT22;8702;48.130;-1.696;2022-11-15T05:32:30;13.80;99.90
17174;DHT22;8702;48.130;-1.696;2022-11-15T05:34:58;13.90;99.90
17174;DHT22;8702;48.130;-1.696;2022-11-15T05:37:25;14.00;99.90
17174;DHT22;8702;48.130;-1.696;2022-11-15T05:39:52;13.90;99.90
17174;DHT22;8702;48.130;-1.696;2022-11-15T05:47:24;13.60;99.90
17174;DHT22;8702;48.130;-1.696;2022-11-15T05:49:53;13.70;99.90
17174;DHT22;8702;48.130;-1.696;2022-11-15T05:52:23;13.70;99.90
17174;DHT22;8702;48.130;-1.696;2022-11-15T05:54:52;13.70;99.90
17174;DHT22;8702;48.130;-1.696;2022-11-15T05:57:19;13.60;99.90
17174;DHT22;8702;48.130;-1.696;2022-11-15T05:59:48;13.60;99.90
17174;DHT22;8702;48.130;-1.696;2022-11-15T06:02:15;13.80;99.90
17174;DHT22;8702;48.130;-1.696;2022-11-15T06:04:44;13.70;99.90
17174;DHT22;8702;48.130;-1.696;2022-11-15T06:09:39;13.70;99.90
17174;DHT22;8702;48.130;-1.696;2022-11-15T06:12:06;13.50;99.90
17174;DHT22;8702;48.130;-1.696;2022-11-15T06:14:33;13.70;99.90
17174;DHT22;8702;48.130;-1.696;2022-11-15T06:17:02;13.80;99.90
17174;DHT22;8702;48.130;-1.696;2022-11-15T06:19:29;13.60;99.90
17174;DHT22;8702;48.130;-1.696;2022-11-15T06:21:58;13.60;99.90
17174;DHT22;8702;48.130;-1.696;2022-11-15T06:24:25;13.60;99.90
17174;DHT22;8702;48.130;-1.696;2022-11-15T06:29:20;13.60;99.90
17174;DHT22;8702;48.130;-1.696;2022-11-15T06:34:17;13.50;99.90
17174;DHT22;8702;48.130;-1.696;2022-11-15T06:36:44;13.50;99.90
17174;DHT22;8702;48.130;-1.696;2022-11-15T06:39:11;13.50;99.90
17174;DHT22;8702;48.130;-1.696;2022-11-15T06:41:38;13.60;99.90
17174;DHT22;8702;48.130;-1.696;2022-11-15T06:56:22;13.70;99.90
17174;DHT22;8702;48.130;-1.696;2022-11-15T07:01:17;13.60;99.90
17174;DHT22;8702;48.130;-1.696;2022-11-15T07:03:44;13.70;99.90
17174;DHT22;8702;48.130;-1.696;2022-11-15T07:08:40;13.90;99.90
17174;DHT22;8702;48.130;-1.696;2022-11-15T07:11:08;13.80;99.90
17174;DHT22;8702;48.130;-1.696;2022-11-15T07:16:04;13.70;99.90
17174;DHT22;8702;48.130;-1.696;2022-11-15T07:18:34;13.80;99.90
17174;DHT22;8702;48.130;-1.696;2022-11-15T07:23:29;13.90;99.90
17174;DHT22;8702;48.130;-1.696;2022-11-15T07:30:54;13.90;99.90
17174;DHT22;8702;48.130;-1.696;2022-11-15T07:40:46;13.90;99.90
17174;DHT22;8702;48.130;-1.696;2022-11-15T07:43:15;13.90;99.90
17174;DHT22;8702;48.130;-1.696;2022-11-15T07:45:43;14.00;99.90
17174;DHT22;8702;48.130;-1.696;2022-11-15T07:48:10;14.00;99.90
17174;DHT22;8702;48.130;-1.696;2022-11-15T07:50:37;14.00;99.90
17174;DHT22;8702;48.130;-1.696;2022-11-15T07:53:08;14.00;99.90
17174;DHT22;8702;48.130;-1.696;2022-11-15T07:55:35;14.00;99.90
17174;DHT22;8702;48.130;-1.696;2022-11-15T07:58:04;14.00;99.90
17174;DHT22;8702;48.130;-1.696;2022-11-15T08:30:14;14.30;99.90
17174;DHT22;8702;48.130;-1.696;2022-11-15T08:32:41;14.30;99.90
17174;DHT22;8702;48.130;-1.696;2022-11-15T08:35:10;14.20;99.90
17174;DHT22;8702;48.130;-1.696;2022-11-15T08:37:37;14.20;99.90
17174;DHT22;8702;48.130;-1.696;2022-11-15T08:40:05;14.20;99.90
17174;DHT22;8702;48.130;-1.696;2022-11-15T08:42:32;14.30;99.90
17174;DHT22;8702;48.130;-1.696;2022-11-15T08:44:59;14.40;99.90
17174;DHT22;8702;48.130;-1.696;2022-11-15T08:47:27;14.40;99.90
17174;DHT22;8702;48.130;-1.696;2022-11-15T08:49:53;14.30;99.90
17174;DHT22;8702;48.130;-1.696;2022-11-15T08:52:22;14.30;99.90
17174;DHT22;8702;48.130;-1.696;2022-11-15T08:54:49;14.30;99.90
17174;DHT22;8702;48.130;-1.696;2022-11-15T08:57:16;14.30;99.90
17174;DHT22;8702;48.130;-1.696;2022-11-15T08:59:43;14.40;99.90
17174;DHT22;8702;48.130;-1.696;2022-11-15T09:04:40;14.30;99.90
17174;DHT22;8702;48.130;-1.696;2022-11-15T09:07:08;14.40;99.90
17174;DHT22;8702;48.130;-1.696;2022-11-15T09:09:37;14.40;99.90
17174;DHT22;8702;48.130;-1.696;2022-11-15T09:12:04;14.30;99.90
17174;DHT22;8702;48.130;-1.696;2022-11-15T09:14:32;14.50;99.90
17174;DHT22;8702;48.130;-1.696;2022-11-15T09:16:59;14.20;99.90
17174;DHT22;8702;48.130;-1.696;2022-11-15T09:19:26;14.30;99.90
17174;DHT22;8702;48.130;-1.696;2022-11-15T09:21:54;14.30;99.90
17174;DHT22;8702;48.130;-1.696;2022-11-15T09:24:21;14.20;99.90
17174;DHT22;8702;48.130;-1.696;2022-11-15T09:26:51;14.30;99.90
17174;DHT22;8702;48.130;-1.696;2022-11-15T09:29:18;14.20;99.90
17174;DHT22;8702;48.130;-1.696;2022-11-15T09:31:45;14.30;99.90
17174;DHT22;8702;48.130;-1.696;2022-11-15T09:36:41;14.50;99.90
17174;DHT22;8702;48.130;-1.696;2022-11-15T09:39:08;14.40;99.90
17174;DHT22;8702;48.130;-1.696;2022-11-15T09:41:54;14.50;99.90
17174;DHT22;8702;48.130;-1.696;2022-11-15T09:44:45;14.40;99.90
17174;DHT22;8702;48.130;-1.696;2022-11-15T09:50:31;14.50;99.90
17174;DHT22;8702;48.130;-1.696;2022-11-15T09:52:58;14.60;99.90
17174;DHT22;8702;48.130;-1.696;2022-11-15T09:55:32;14.60;99.90
17174;DHT22;8702;48.130;-1.696;2022-11-15T09:58:10;14.60;99.90
17174;DHT22;8702;48.130;-1.696;2022-11-15T10:00:45;14.50;99.90
17174;DHT22;8702;48.130;-1.696;2022-11-15T10:03:23;14.60;99.90
17174;DHT22;8702;48.130;-1.696;2022-11-15T10:05:54;14.60;99.90
17174;DHT22;8702;48.130;-1.696;2022-11-15T10:08:46;14.60;99.90
17174;DHT22;8702;48.130;-1.696;2022-11-15T10:11:17;14.60;99.90
17174;DHT22;8702;48.130;-1.696;2022-11-15T10:13:48;14.60;99.90
17174;DHT22;8702;48.130;-1.696;2022-11-15T10:16:36;14.50;99.90
17174;DHT22;8702;48.130;-1.696;2022-11-15T10:19:12;14.50;99.90
17174;DHT22;8702;48.130;-1.696;2022-11-15T10:21:49;14.40;99.90
17174;DHT22;8702;48.130;-1.696;2022-11-15T10:24:23;14.50;99.90
17174;DHT22;8702;48.130;-1.696;2022-11-15T10:26:54;14.40;99.90
17174;DHT22;8702;48.130;-1.696;2022-11-15T10:34:19;14.40;99.90
17174;DHT22;8702;48.130;-1.696;2022-11-15T10:36:53;14.40;99.90
17174;DHT22;8702;48.130;-1.696;2022-11-15T10:39:20;14.40;99.90
17174;DHT22;8702;48.130;-1.696;2022-11-15T10:41:47;14.50;99.90
17174;DHT22;8702;48.130;-1.696;2022-11-15T10:44:22;14.60;99.90
17174;DHT22;8702;48.130;-1.696;2022-11-15T10:52:01;15.10;99.90
17174;DHT22;8702;48.130;-1.696;2022-11-15T10:54:33;15.10;99.90
17174;DHT22;8702;48.130;-1.696;2022-11-15T10:57:06;15.10;99.90
17174;DHT22;8702;48.130;-1.696;2022-11-15T10:59:36;15.30;99.90
17174;DHT22;8702;48.130;-1.696;2022-11-15T11:05:05;15.50;99.90
17174;DHT22;8702;48.130;-1.696;2022-11-15T11:07:34;15.40;99.90
17174;DHT22;8702;48.130;-1.696;2022-11-15T11:10:05;15.50;99.90
17174;DHT22;8702;48.130;-1.696;2022-11-15T11:12:43;15.50;99.90
17174;DHT22;8702;48.130;-1.696;2022-11-15T11:15:13;15.50;99.90
17174;DHT22;8702;48.130;-1.696;2022-11-15T11:17:53;15.50;99.90
17174;DHT22;8702;48.130;-1.696;2022-11-15T11:20:25;15.60;99.90
17174;DHT22;8702;48.130;-1.696;2022-11-15T11:23:18;15.50;99.90
17174;DHT22;8702;48.130;-1.696;2022-11-15T11:25:50;15.60;99.90
17174;DHT22;8702;48.130;-1.696;2022-11-15T11:28:32;15.60;99.90
17174;DHT22;8702;48.130;-1.696;2022-11-15T11:31:09;15.50;99.90
17174;DHT22;8702;48.130;-1.696;2022-11-15T11:33:42;15.50;99.90
17174;DHT22;8702;48.130;-1.696;2022-11-15T11:36:21;15.50;99.90
17174;DHT22;8702;48.130;-1.696;2022-11-15T11:38:56;15.20;99.90
17174;DHT22;8702;48.130;-1.696;2022-11-15T11:41:40;15.60;99.90
17174;DHT22;8702;48.130;-1.696;2022-11-15T11:44:20;15.60;99.90
17174;DHT22;8702;48.130;-1.696;2022-11-15T11:46:55;15.60;99.90
17174;DHT22;8702;48.130;-1.696;2022-11-15T11:49:31;15.60;99.90
17174;DHT22;8702;48.130;-1.696;2022-11-15T11:52:08;15.50;99.90
17174;DHT22;8702;48.130;-1.696;2022-11-15T11:54:47;15.50;99.90
17174;DHT22;8702;48.130;-1.696;2022-11-15T11:57:20;15.30;99.90
17174;DHT22;8702;48.130;-1.696;2022-11-15T11:59:53;15.40;99.90
17174;DHT22;8702;48.130;-1.696;2022-11-15T12:02:28;15.40;99.90
17174;DHT22;8702;48.130;-1.696;2022-11-15T12:19:59;15.40;99.90
17174;DHT22;8702;48.130;-1.696;2022-11-15T12:22:36;15.40;99.90
17174;DHT22;8702;48.130;-1.696;2022-11-15T12:25:08;15.40;99.90
17174;DHT22;8702;48.130;-1.696;2022-11-15T12:32:52;15.40;99.90
17174;DHT22;8702;48.130;-1.696;2022-11-15T12:37:53;15.60;99.90
17174;DHT22;8702;48.130;-1.696;2022-11-15T12:45:52;15.60;99.90
17174;DHT22;8702;48.130;-1.696;2022-11-15T12:51:06;15.80;99.90
17174;DHT22;8702;48.130;-1.696;2022-11-15T12:56:20;15.90;99.90
17174;DHT22;8702;48.130;-1.696;2022-11-15T13:27:47;15.90;99.90
17174;DHT22;8702;48.130;-1.696;2022-11-15T13:32:52;16.00;99.90
17174;DHT22;8702;48.130;-1.696;2022-11-15T13:42:53;16.10;99.90
17174;DHT22;8702;48.130;-1.696;2022-11-15T13:45:20;16.00;99.90
17174;DHT22;8702;48.130;-1.696;2022-11-15T13:47:58;15.90;99.90
17174;DHT22;8702;48.130;-1.696;2022-11-15T13:50:28;15.60;99.90
17174;DHT22;8702;48.130;-1.696;2022-11-15T13:53:00;15.50;99.90
17174;DHT22;8702;48.130;-1.696;2022-11-15T13:55:29;15.30;99.90
17174;DHT22;8702;48.130;-1.696;2022-11-15T14:15:30;16.20;99.90
17174;DHT22;8702;48.130;-1.696;2022-11-15T14:17:57;16.00;99.90
17174;DHT22;8702;48.130;-1.696;2022-11-15T14:20:30;16.00;99.90
17174;DHT22;8702;48.130;-1.696;2022-11-15T14:22:59;16.00;99.90
17174;DHT22;8702;48.130;-1.696;2022-11-15T14:25:29;15.90;99.90
17174;DHT22;8702;48.130;-1.696;2022-11-15T14:30:44;15.90;99.90
17174;DHT22;8702;48.130;-1.696;2022-11-15T14:33:21;15.80;99.90
17174;DHT22;8702;48.130;-1.696;2022-11-15T14:35:48;15.90;99.90
17174;DHT22;8702;48.130;-1.696;2022-11-15T14:38:15;15.90;99.90
17174;DHT22;8702;48.130;-1.696;2022-11-15T14:40:44;15.90;99.90
17174;DHT22;8702;48.130;-1.696;2022-11-15T14:43:11;15.90;99.90
17174;DHT22;8702;48.130;-1.696;2022-11-15T14:45:39;15.70;99.90
17174;DHT22;8702;48.130;-1.696;2022-11-15T14:48:06;15.70;99.90
17174;DHT22;8702;48.130;-1.696;2022-11-15T14:50:34;15.60;99.90
17174;DHT22;8702;48.130;-1.696;2022-11-15T14:53:01;15.50;99.90
17174;DHT22;8702;48.130;-1.696;2022-11-15T14:55:30;15.50;99.90
17174;DHT22;8702;48.130;-1.696;2022-11-15T14:58:01;15.30;99.90
17174;DHT22;8702;48.130;-1.696;2022-11-15T15:00:29;15.20;99.90
17174;DHT22;8702;48.130;-1.696;2022-11-15T15:05:26;16.60;99.90
17174;DHT22;8702;48.130;-1.696;2022-11-15T15:07:54;15.50;99.90
17174;DHT22;8702;48.130;-1.696;2022-11-15T15:12:49;15.60;99.90
17174;DHT22;8702;48.130;-1.696;2022-11-15T15:15:24;15.60;99.90
17174;DHT22;8702;48.130;-1.696;2022-11-15T15:17:52;15.60;99.90
17174;DHT22;8702;48.130;-1.696;2022-11-15T15:20:19;15.50;99.90
17174;DHT22;8702;48.130;-1.696;2022-11-15T15:22:46;15.70;99.90
17174;DHT22;8702;48.130;-1.696;2022-11-15T15:25:22;15.60;99.90
17174;DHT22;8702;48.130;-1.696;2022-11-15T15:27:51;15.70;99.90
17174;DHT22;8702;48.130;-1.696;2022-11-15T15:30:20;15.70;99.90
17174;DHT22;8702;48.130;-1.696;2022-11-15T15:32:47;15.90;99.90
17174;DHT22;8702;48.130;-1.696;2022-11-15T15:35:15;16.00;99.90
17174;DHT22;8702;48.130;-1.696;2022-11-15T15:37:44;16.10;99.90
17174;DHT22;8702;48.130;-1.696;2022-11-15T15:45:10;16.10;99.90
17174;DHT22;8702;48.130;-1.696;2022-11-15T15:50:20;16.20;99.90
17174;DHT22;8702;48.130;-1.696;2022-11-15T15:52:50;16.10;99.90
17174;DHT22;8702;48.130;-1.696;2022-11-15T16:00:20;16.00;99.90
17174;DHT22;8702;48.130;-1.696;2022-11-15T16:02:50;15.90;99.90
17174;DHT22;8702;48.130;-1.696;2022-11-15T16:05:17;16.00;99.90
17174;DHT22;8702;48.130;-1.696;2022-11-15T16:07:44;16.00;99.90
17174;DHT22;8702;48.130;-1.696;2022-11-15T16:10:21;16.00;99.90
17174;DHT22;8702;48.130;-1.696;2022-11-15T16:12:48;16.00;99.90
17174;DHT22;8702;48.130;-1.696;2022-11-15T16:15:16;15.80;99.90
17174;DHT22;8702;48.130;-1.696;2022-11-15T16:17:49;15.70;99.90
17174;DHT22;8702;48.130;-1.696;2022-11-15T16:20:29;15.70;99.90
17174;DHT22;8702;48.130;-1.696;2022-11-15T16:22:57;15.60;99.90
17174;DHT22;8702;48.130;-1.696;2022-11-15T16:25:24;15.50;99.90
17174;DHT22;8702;48.130;-1.696;2022-11-15T16:27:52;15.50;99.90
17174;DHT22;8702;48.130;-1.696;2022-11-15T16:30:21;15.40;99.90
17174;DHT22;8702;48.130;-1.696;2022-11-15T16:32:50;15.60;99.90
17174;DHT22;8702;48.130;-1.696;2022-11-15T16:37:48;15.30;99.90
17174;DHT22;8702;48.130;-1.696;2022-11-15T16:40:24;15.20;99.90
17174;DHT22;8702;48.130;-1.696;2022-11-15T16:42:52;15.20;99.90
17174;DHT22;8702;48.130;-1.696;2022-11-15T16:45:20;15.10;99.90
17174;DHT22;8702;48.130;-1.696;2022-11-15T16:47:48;14.90;99.90
17174;DHT22;8702;48.130;-1.696;2022-11-15T16:50:20;14.90;99.90
17174;DHT22;8702;48.130;-1.696;2022-11-15T16:52:51;14.80;99.90
17174;DHT22;8702;48.130;-1.696;2022-11-15T16:55:19;14.80;99.90
17174;DHT22;8702;48.130;-1.696;2022-11-15T16:57:46;14.60;99.90
17174;DHT22;8702;48.130;-1.696;2022-11-15T17:00:14;14.60;99.90
17174;DHT22;8702;48.130;-1.696;2022-11-15T17:02:42;14.50;99.90
17174;DHT22;8702;48.130;-1.696;2022-11-15T17:05:10;14.70;99.90
17174;DHT22;8702;48.130;-1.696;2022-11-15T17:07:38;14.50;99.90
17174;DHT22;8702;48.130;-1.696;2022-11-15T17:10:08;14.50;99.90
17174;DHT22;8702;48.130;-1.696;2022-11-15T17:12:35;14.30;99.90
17174;DHT22;8702;48.130;-1.696;2022-11-15T17:15:03;14.30;99.90
17174;DHT22;8702;48.130;-1.696;2022-11-15T17:17:31;14.30;99.90
17174;DHT22;8702;48.130;-1.696;2022-11-15T17:19:58;14.30;99.90
17174;DHT22;8702;48.130;-1.696;2022-11-15T17:22:25;14.20;99.90
17174;DHT22;8702;48.130;-1.696;2022-11-15T17:24:53;14.20;99.90
17174;DHT22;8702;48.130;-1.696;2022-11-15T17:27:20;14.30;99.90
17174;DHT22;8702;48.130;-1.696;2022-11-15T17:29:48;14.00;99.90
17174;DHT22;8702;48.130;-1.696;2022-11-15T17:32:15;14.10;99.90
17174;DHT22;8702;48.130;-1.696;2022-11-15T17:34:42;14.10;99.90
17174;DHT22;8702;48.130;-1.696;2022-11-15T17:37:09;14.10;99.90
17174;DHT22;8702;48.130;-1.696;2022-11-15T17:39:36;14.20;99.90
17174;DHT22;8702;48.130;-1.696;2022-11-15T17:42:05;14.20;99.90
17174;DHT22;8702;48.130;-1.696;2022-11-15T17:44:32;14.20;99.90
17174;DHT22;8702;48.130;-1.696;2022-11-15T17:46:59;14.20;99.90
17174;DHT22;8702;48.130;-1.696;2022-11-15T17:49:26;14.20;99.90
17174;DHT22;8702;48.130;-1.696;2022-11-15T17:51:54;14.20;99.90
17174;DHT22;8702;48.130;-1.696;2022-11-15T17:54:21;14.10;99.90
17174;DHT22;8702;48.130;-1.696;2022-11-15T17:56:48;13.90;99.90
17174;DHT22;8702;48.130;-1.696;2022-11-15T17:59:16;13.80;99.90
17174;DHT22;8702;48.130;-1.696;2022-11-15T18:01:43;13.90;99.90
17174;DHT22;8702;48.130;-1.696;2022-11-15T18:04:11;13.90;99.90
17174;DHT22;8702;48.130;-1.696;2022-11-15T18:06:39;14.00;99.90
17174;DHT22;8702;48.130;-1.696;2022-11-15T18:09:07;14.00;99.90
17174;DHT22;8702;48.130;-1.696;2022-11-15T18:11:35;14.30;99.90
17174;DHT22;8702;48.130;-1.696;2022-11-15T18:14:05;14.00;99.90
17174;DHT22;8702;48.130;-1.696;2022-11-15T18:16:36;14.00;99.90
17174;DHT22;8702;48.130;-1.696;2022-11-15T18:19:03;14.30;99.90
17174;DHT22;8702;48.130;-1.696;2022-11-15T18:21:33;14.10;99.90
17174;DHT22;8702;48.130;-1.696;2022-11-15T18:24:21;14.00;99.90
17174;DHT22;8702;48.130;-1.696;2022-11-15T18:26:48;14.00;99.90
17174;DHT22;8702;48.130;-1.696;2022-11-15T18:29:15;14.00;99.90
17174;DHT22;8702;48.130;-1.696;2022-11-15T18:31:43;13.90;99.90
17174;DHT22;8702;48.130;-1.696;2022-11-15T18:34:10;13.90;99.90
17174;DHT22;8702;48.130;-1.696;2022-11-15T18:36:37;13.70;99.90
17174;DHT22;8702;48.130;-1.696;2022-11-15T18:39:05;13.70;99.90
17174;DHT22;8702;48.130;-1.696;2022-11-15T18:41:32;13.70;99.90
17174;DHT22;8702;48.130;-1.696;2022-11-15T18:44:01;13.70;99.90
17174;DHT22;8702;48.130;-1.696;2022-11-15T18:46:29;13.70;99.90
17174;DHT22;8702;48.130;-1.696;2022-11-15T18:49:00;13.70;99.90
17174;DHT22;8702;48.130;-1.696;2022-11-15T18:51:30;13.70;99.90
17174;DHT22;8702;48.130;-1.696;2022-11-15T18:53:59;13.70;99.90
17174;DHT22;8702;48.130;-1.696;2022-11-15T18:56:27;13.60;99.90
17174;DHT22;8702;48.130;-1.696;2022-11-15T18:58:56;13.60;99.90
17174;DHT22;8702;48.130;-1.696;2022-11-15T19:01:25;13.60;99.90
17174;DHT22;8702;48.130;-1.696;2022-11-15T19:03:55;13.50;99.90
17174;DHT22;8702;48.130;-1.696;2022-11-15T19:06:25;13.60;99.90
17174;DHT22;8702;48.130;-1.696;2022-11-15T19:08:53;13.50;99.90
17174;DHT22;8702;48.130;-1.696;2022-11-15T19:11:22;13.50;99.90
17174;DHT22;8702;48.130;-1.696;2022-11-15T19:13:53;13.50;99.90
17174;DHT22;8702;48.130;-1.696;2022-11-15T19:16:20;13.60;99.90
17174;DHT22;8702;48.130;-1.696;2022-11-15T19:18:52;13.50;99.90
17174;DHT22;8702;48.130;-1.696;2022-11-15T19:21:19;13.40;99.90